sensor_id;sensor_type;location;lat;lon;timestamp;P1;durP1;ratioP1;P2;durP2;ratioP2
8060;SDS011;4073;42.626;25.386;2023-03-11T00:01:22;9.43;;;7.37;;
8060;SDS011;4073;42.626;25.386;2023-03-11T00:03:49;11.87;;;9.37;;
8060;SDS011;4073;42.626;25.386;2023-03-11T00:06:14;13.33;;;10.37;;
8060;SDS011;4073;42.626;25.386;2023-03-11T00:08:40;11.77;;;7.97;;
8060;SDS011;4073;42.626;25.386;2023-03-11T00:11:06;8.37;;;7.17;;
8060;SDS011;4073;42.626;25.386;2023-03-11T00:13:32;10.40;;;7.53;;
8060;SDS011;4073;42.626;25.386;2023-03-11T00:15:57;8.73;;;7.43;;
8060;SDS011;4073;42.626;25.386;2023-03-11T00:18:25;10.33;;;7.33;;
8060;SDS011;4073;42.626;25.386;2023-03-11T00:20:52;10.23;;;7.70;;
8060;SDS011;4073;42.626;25.386;2023-03-11T00:23:18;12.20;;;8.47;;
8060;SDS011;4073;42.626;25.386;2023-03-11T00:25:44;12.40;;;7.67;;
8060;SDS011;4073;42.626;25.386;2023-03-11T00:28:11;10.83;;;6.77;;
8060;SDS011;4073;42.626;25.386;2023-03-11T00:30:37;10.10;;;7.43;;
8060;SDS011;4073;42.626;25.386;2023-03-11T00:33:04;9.70;;;7.23;;
8060;SDS011;4073;42.626;25.386;2023-03-11T00:35:31;12.90;;;7.70;;
8060;SDS011;4073;42.626;25.386;2023-03-11T00:37:59;8.77;;;7.00;;
8060;SDS011;4073;42.626;25.386;2023-03-11T00:40:28;14.13;;;8.47;;
8060;SDS011;4073;42.626;25.386;2023-03-11T00:42:54;12.60;;;8.17;;
8060;SDS011;4073;42.626;25.386;2023-03-11T00:45:20;10.53;;;8.00;;
8060;SDS011;4073;42.626;25.386;2023-03-11T00:47:46;9.43;;;7.80;;
8060;SDS011;4073;42.626;25.386;2023-03-11T00:50:16;11.00;;;8.20;;
8060;SDS011;4073;42.626;25.386;2023-03-11T00:52:45;11.90;;;9.53;;
8060;SDS011;4073;42.626;25.386;2023-03-11T00:55:13;12.00;;;9.93;;
8060;SDS011;4073;42.626;25.386;2023-03-11T00:57:40;16.73;;;11.63;;
8060;SDS011;4073;42.626;25.386;2023-03-11T01:00:06;11.43;;;8.57;;
8060;SDS011;4073;42.626;25.386;2023-03-11T01:02:36;12.93;;;11.47;;
8060;SDS011;4073;42.626;25.386;2023-03-11T01:05:02;12.07;;;9.07;;
8060;SDS011;4073;42.626;25.386;2023-03-11T01:07:27;13.23;;;8.13;;
8060;SDS011;4073;42.626;25.386;2023-03-11T01:09:53;9.70;;;8.70;;
8060;SDS011;4073;42.626;25.386;2023-03-11T01:12:18;13.70;;;7.63;;
8060;SDS011;4073;42.626;25.386;2023-03-11T01:14:44;12.60;;;10.00;;
8060;SDS011;4073;42.626;25.386;2023-03-11T01:17:09;12.43;;;7.73;;
8060;SDS011;4073;42.626;25.386;2023-03-11T01:19:35;10.67;;;7.00;;
8060;SDS011;4073;42.626;25.386;2023-03-11T01:22:00;10.67;;;8.33;;
8060;SDS011;4073;42.626;25.386;2023-03-11T01:24:25;13.03;;;9.63;;
8060;SDS011;4073;42.626;25.386;2023-03-11T01:26:51;13.93;;;8.27;;
8060;SDS011;4073;42.626;25.386;2023-03-11T01:29:16;10.73;;;7.00;;
8060;SDS011;4073;42.626;25.386;2023-03-11T01:31:42;9.57;;;6.80;;
8060;SDS011;4073;42.626;25.386;2023-03-11T01:34:07;10.07;;;6.70;;
8060;SDS011;4073;42.626;25.386;2023-03-11T01:36:32;13.63;;;6.97;;
8060;SDS011;4073;42.626;25.386;2023-03-11T01:38:58;8.27;;;5.83;;
8060;SDS011;4073;42.626;25.386;2023-03-11T01:41:23;11.47;;;6.67;;
8060;SDS011;4073;42.626;25.386;2023-03-11T01:43:50;12.17;;;6.57;;
8060;SDS011;4073;42.626;25.386;2023-03-11T01:46:29;9.50;;;6.07;;
8060;SDS011;4073;42.626;25.386;2023-03-11T01:48:58;13.43;;;6.80;;
8060;SDS011;4073;42.626;25.386;2023-03-11T01:51:36;11.47;;;5.90;;
8060;SDS011;4073;42.626;25.386;2023-03-11T01:54:07;14.27;;;7.03;;
8060;SDS011;4073;42.626;25.386;2023-03-11T01:56:36;9.70;;;6.93;;
8060;SDS011;4073;42.626;25.386;2023-03-11T01:59:03;11.53;;;6.07;;
8060;SDS011;4073;42.626;25.386;2023-03-11T02:01:30;13.73;;;7.20;;
8060;SDS011;4073;42.626;25.386;2023-03-11T02:03:56;10.27;;;5.93;;
8060;SDS011;4073;42.626;25.386;2023-03-11T02:06:22;7.57;;;6.13;;
8060;SDS011;4073;42.626;25.386;2023-03-11T02:08:49;10.07;;;6.20;;
8060;SDS011;4073;42.626;25.386;2023-03-11T02:11:19;14.23;;;7.13;;
8060;SDS011;4073;42.626;25.386;2023-03-11T02:13:49;10.83;;;6.40;;
8060;SDS011;4073;42.626;25.386;2023-03-11T02:16:16;10.90;;;5.87;;
8060;SDS011;4073;42.626;25.386;2023-03-11T02:18:42;12.63;;;6.20;;
8060;SDS011;4073;42.626;25.386;2023-03-11T02:27:02;14.57;;;5.67;;
8060;SDS011;4073;42.626;25.386;2023-03-11T02:29:31;11.23;;;5.70;;
8060;SDS011;4073;42.626;25.386;2023-03-11T02:31:58;9.43;;;5.40;;
8060;SDS011;4073;42.626;25.386;2023-03-11T02:34:32;8.80;;;5.27;;
8060;SDS011;4073;42.626;25.386;2023-03-11T02:37:00;8.67;;;6.03;;
8060;SDS011;4073;42.626;25.386;2023-03-11T02:39:32;6.83;;;5.60;;
8060;SDS011;4073;42.626;25.386;2023-03-11T02:42:01;8.83;;;5.20;;
8060;SDS011;4073;42.626;25.386;2023-03-11T02:44:32;6.97;;;4.83;;
8060;SDS011;4073;42.626;25.386;2023-03-11T02:46:58;11.07;;;5.13;;
8060;SDS011;4073;42.626;25.386;2023-03-11T02:49:24;9.50;;;5.43;;
8060;SDS011;4073;42.626;25.386;2023-03-11T02:51:50;8.80;;;5.30;;
8060;SDS011;4073;42.626;25.386;2023-03-11T02:54:16;8.37;;;4.87;;
8060;SDS011;4073;42.626;25.386;2023-03-11T02:56:41;7.33;;;4.77;;
8060;SDS011;4073;42.626;25.386;2023-03-11T02:59:07;9.97;;;5.63;;
8060;SDS011;4073;42.626;25.386;2023-03-11T03:01:32;49.90;;;36.00;;
8060;SDS011;4073;42.626;25.386;2023-03-11T03:03:58;18.43;;;12.13;;
8060;SDS011;4073;42.626;25.386;2023-03-11T03:06:23;12.73;;;10.43;;
8060;SDS011;4073;42.626;25.386;2023-03-11T03:08:49;16.00;;;10.67;;
8060;SDS011;4073;42.626;25.386;2023-03-11T03:11:14;19.97;;;11.97;;
8060;SDS011;4073;42.626;25.386;2023-03-11T03:13:40;9.20;;;7.87;;
8060;SDS011;4073;42.626;25.386;2023-03-11T03:16:05;13.17;;;8.30;;
8060;SDS011;4073;42.626;25.386;2023-03-11T03:18:31;10.00;;;8.27;;
8060;SDS011;4073;42.626;25.386;2023-03-11T03:20:56;10.13;;;7.17;;
8060;SDS011;4073;42.626;25.386;2023-03-11T03:23:22;8.17;;;7.47;;
8060;SDS011;4073;42.626;25.386;2023-03-11T03:25:47;10.23;;;7.23;;
8060;SDS011;4073;42.626;25.386;2023-03-11T03:28:13;8.70;;;6.60;;
8060;SDS011;4073;42.626;25.386;2023-03-11T03:30:39;8.13;;;7.20;;
8060;SDS011;4073;42.626;25.386;2023-03-11T03:33:05;14.77;;;8.37;;
8060;SDS011;4073;42.626;25.386;2023-03-11T03:35:31;10.97;;;7.87;;
8060;SDS011;4073;42.626;25.386;2023-03-11T03:37:57;12.10;;;7.87;;
8060;SDS011;4073;42.626;25.386;2023-03-11T03:40:24;12.47;;;8.23;;
8060;SDS011;4073;42.626;25.386;2023-03-11T03:42:50;12.23;;;8.03;;
8060;SDS011;4073;42.626;25.386;2023-03-11T03:45:15;10.17;;;7.60;;
8060;SDS011;4073;42.626;25.386;2023-03-11T03:47:41;8.23;;;7.10;;
8060;SDS011;4073;42.626;25.386;2023-03-11T03:50:07;9.17;;;7.20;;
8060;SDS011;4073;42.626;25.386;2023-03-11T03:52:35;14.40;;;8.03;;
8060;SDS011;4073;42.626;25.386;2023-03-11T03:55:01;8.73;;;7.27;;
8060;SDS011;4073;42.626;25.386;2023-03-11T03:57:27;14.33;;;8.13;;
8060;SDS011;4073;42.626;25.386;2023-03-11T03:59:53;9.67;;;7.30;;
8060;SDS011;4073;42.626;25.386;2023-03-11T04:02:18;34.97;;;19.53;;
8060;SDS011;4073;42.626;25.386;2023-03-11T04:04:44;25.77;;;15.47;;
8060;SDS011;4073;42.626;25.386;2023-03-11T04:07:09;25.87;;;14.07;;
8060;SDS011;4073;42.626;25.386;2023-03-11T04:09:37;15.77;;;9.90;;
8060;SDS011;4073;42.626;25.386;2023-03-11T04:12:06;11.50;;;10.13;;
8060;SDS011;4073;42.626;25.386;2023-03-11T04:14:36;10.50;;;9.10;;
8060;SDS011;4073;42.626;25.386;2023-03-11T04:17:01;13.77;;;9.50;;
8060;SDS011;4073;42.626;25.386;2023-03-11T04:19:27;10.13;;;8.93;;
8060;SDS011;4073;42.626;25.386;2023-03-11T04:21:52;13.73;;;9.37;;
8060;SDS011;4073;42.626;25.386;2023-03-11T04:24:18;19.10;;;12.70;;
8060;SDS011;4073;42.626;25.386;2023-03-11T04:26:43;15.93;;;12.40;;
8060;SDS011;4073;42.626;25.386;2023-03-11T04:29:09;14.27;;;11.70;;
8060;SDS011;4073;42.626;25.386;2023-03-11T04:31:34;14.40;;;10.10;;
8060;SDS011;4073;42.626;25.386;2023-03-11T04:34:00;15.30;;;9.87;;
8060;SDS011;4073;42.626;25.386;2023-03-11T04:36:25;19.70;;;15.23;;
8060;SDS011;4073;42.626;25.386;2023-03-11T04:38:51;24.23;;;15.80;;
8060;SDS011;4073;42.626;25.386;2023-03-11T04:41:16;12.47;;;10.37;;
8060;SDS011;4073;42.626;25.386;2023-03-11T04:43:42;17.73;;;11.70;;
8060;SDS011;4073;42.626;25.386;2023-03-11T04:46:07;14.63;;;11.73;;
8060;SDS011;4073;42.626;25.386;2023-03-11T04:48:33;14.17;;;10.83;;
8060;SDS011;4073;42.626;25.386;2023-03-11T04:50:58;17.83;;;13.97;;
8060;SDS011;4073;42.626;25.386;2023-03-11T04:53:24;13.10;;;10.80;;
8060;SDS011;4073;42.626;25.386;2023-03-11T04:55:49;24.53;;;14.73;;
8060;SDS011;4073;42.626;25.386;2023-03-11T04:58:16;20.70;;;16.30;;
8060;SDS011;4073;42.626;25.386;2023-03-11T05:00:41;15.37;;;12.87;;
8060;SDS011;4073;42.626;25.386;2023-03-11T05:03:07;16.27;;;11.37;;
8060;SDS011;4073;42.626;25.386;2023-03-11T05:05:32;15.43;;;11.40;;
8060;SDS011;4073;42.626;25.386;2023-03-11T05:07:59;15.87;;;12.30;;
8060;SDS011;4073;42.626;25.386;2023-03-11T05:10:24;22.93;;;19.53;;
8060;SDS011;4073;42.626;25.386;2023-03-11T05:12:50;22.23;;;16.50;;
8060;SDS011;4073;42.626;25.386;2023-03-11T05:15:16;14.97;;;12.03;;
8060;SDS011;4073;42.626;25.386;2023-03-11T05:17:42;23.07;;;15.43;;
8060;SDS011;4073;42.626;25.386;2023-03-11T05:20:07;14.97;;;12.47;;
8060;SDS011;4073;42.626;25.386;2023-03-11T05:22:34;20.60;;;15.20;;
8060;SDS011;4073;42.626;25.386;2023-03-11T05:25:00;19.47;;;14.27;;
8060;SDS011;4073;42.626;25.386;2023-03-11T05:27:25;23.50;;;17.47;;
8060;SDS011;4073;42.626;25.386;2023-03-11T05:29:51;23.93;;;16.30;;
8060;SDS011;4073;42.626;25.386;2023-03-11T05:32:16;19.87;;;14.20;;
8060;SDS011;4073;42.626;25.386;2023-03-11T05:34:43;35.00;;;25.87;;
8060;SDS011;4073;42.626;25.386;2023-03-11T05:37:09;41.53;;;29.47;;
8060;SDS011;4073;42.626;25.386;2023-03-11T05:39:36;29.33;;;20.13;;
8060;SDS011;4073;42.626;25.386;2023-03-11T05:42:02;29.13;;;18.00;;
8060;SDS011;4073;42.626;25.386;2023-03-11T05:44:28;22.13;;;15.90;;
8060;SDS011;4073;42.626;25.386;2023-03-11T05:46:54;18.30;;;11.80;;
8060;SDS011;4073;42.626;25.386;2023-03-11T05:49:20;16.73;;;11.77;;
8060;SDS011;4073;42.626;25.386;2023-03-11T05:51:46;13.30;;;10.87;;
8060;SDS011;4073;42.626;25.386;2023-03-11T05:54:11;13.33;;;10.43;;
8060;SDS011;4073;42.626;25.386;2023-03-11T05:56:39;11.73;;;10.33;;
8060;SDS011;4073;42.626;25.386;2023-03-11T05:59:06;12.97;;;11.00;;
8060;SDS011;4073;42.626;25.386;2023-03-11T06:01:32;15.73;;;12.77;;
8060;SDS011;4073;42.626;25.386;2023-03-11T06:03:58;14.27;;;9.90;;
8060;SDS011;4073;42.626;25.386;2023-03-11T06:06:24;12.60;;;10.10;;
8060;SDS011;4073;42.626;25.386;2023-03-11T06:08:49;15.40;;;9.87;;
8060;SDS011;4073;42.626;25.386;2023-03-11T06:11:15;66.70;;;39.67;;
8060;SDS011;4073;42.626;25.386;2023-03-11T06:13:42;20.27;;;13.93;;
8060;SDS011;4073;42.626;25.386;2023-03-11T06:16:07;12.57;;;9.97;;
8060;SDS011;4073;42.626;25.386;2023-03-11T06:18:33;10.57;;;8.97;;
8060;SDS011;4073;42.626;25.386;2023-03-11T06:20:59;13.37;;;9.60;;
8060;SDS011;4073;42.626;25.386;2023-03-11T06:23:26;10.43;;;8.53;;
8060;SDS011;4073;42.626;25.386;2023-03-11T06:25:55;10.63;;;8.53;;
8060;SDS011;4073;42.626;25.386;2023-03-11T06:28:26;9.53;;;8.00;;
8060;SDS011;4073;42.626;25.386;2023-03-11T06:30:52;13.83;;;9.10;;
8060;SDS011;4073;42.626;25.386;2023-03-11T06:33:21;11.60;;;9.40;;
8060;SDS011;4073;42.626;25.386;2023-03-11T06:35:56;10.43;;;8.30;;
8060;SDS011;4073;42.626;25.386;2023-03-11T06:38:22;12.23;;;7.63;;
8060;SDS011;4073;42.626;25.386;2023-03-11T06:40:48;15.03;;;10.50;;
8060;SDS011;4073;42.626;25.386;2023-03-11T06:43:13;10.80;;;9.73;;
8060;SDS011;4073;42.626;25.386;2023-03-11T06:45:39;12.43;;;9.50;;
8060;SDS011;4073;42.626;25.386;2023-03-11T06:48:04;12.43;;;8.87;;
8060;SDS011;4073;42.626;25.386;2023-03-11T06:50:30;13.33;;;8.30;;
8060;SDS011;4073;42.626;25.386;2023-03-11T06:52:55;12.47;;;9.10;;
8060;SDS011;4073;42.626;25.386;2023-03-11T06:55:21;12.93;;;8.30;;
8060;SDS011;4073;42.626;25.386;2023-03-11T06:57:46;18.27;;;13.83;;
8060;SDS011;4073;42.626;25.386;2023-03-11T07:00:12;12.00;;;10.23;;
8060;SDS011;4073;42.626;25.386;2023-03-11T07:02:38;11.97;;;10.37;;
8060;SDS011;4073;42.626;25.386;2023-03-11T07:05:04;30.60;;;24.27;;
8060;SDS011;4073;42.626;25.386;2023-03-11T07:07:31;13.10;;;11.77;;
8060;SDS011;4073;42.626;25.386;2023-03-11T07:09:56;14.53;;;11.20;;
8060;SDS011;4073;42.626;25.386;2023-03-11T07:12:22;15.90;;;13.13;;
8060;SDS011;4073;42.626;25.386;2023-03-11T07:14:53;13.37;;;11.20;;
8060;SDS011;4073;42.626;25.386;2023-03-11T07:17:19;13.07;;;10.90;;
8060;SDS011;4073;42.626;25.386;2023-03-11T07:19:45;12.17;;;8.77;;
8060;SDS011;4073;42.626;25.386;2023-03-11T07:22:11;19.73;;;12.97;;
8060;SDS011;4073;42.626;25.386;2023-03-11T07:24:36;11.83;;;8.60;;
8060;SDS011;4073;42.626;25.386;2023-03-11T07:27:02;10.67;;;8.43;;
8060;SDS011;4073;42.626;25.386;2023-03-11T07:29:27;9.30;;;8.40;;
8060;SDS011;4073;42.626;25.386;2023-03-11T07:31:53;12.13;;;6.90;;
8060;SDS011;4073;42.626;25.386;2023-03-11T07:34:18;10.17;;;8.37;;
8060;SDS011;4073;42.626;25.386;2023-03-11T07:36:44;9.03;;;7.07;;
8060;SDS011;4073;42.626;25.386;2023-03-11T07:39:11;9.57;;;7.07;;
8060;SDS011;4073;42.626;25.386;2023-03-11T07:41:39;7.30;;;6.00;;
8060;SDS011;4073;42.626;25.386;2023-03-11T07:44:04;10.50;;;6.50;;
8060;SDS011;4073;42.626;25.386;2023-03-11T07:46:30;7.50;;;5.30;;
8060;SDS011;4073;42.626;25.386;2023-03-11T07:48:56;8.50;;;4.60;;
8060;SDS011;4073;42.626;25.386;2023-03-11T07:51:26;7.80;;;4.60;;
8060;SDS011;4073;42.626;25.386;2023-03-11T07:53:54;6.60;;;4.23;;
8060;SDS011;4073;42.626;25.386;2023-03-11T07:56:21;7.40;;;4.33;;
8060;SDS011;4073;42.626;25.386;2023-03-11T07:58:48;4.93;;;4.43;;
8060;SDS011;4073;42.626;25.386;2023-03-11T08:01:15;13.50;;;6.53;;
8060;SDS011;4073;42.626;25.386;2023-03-11T08:03:46;5.47;;;4.97;;
8060;SDS011;4073;42.626;25.386;2023-03-11T08:06:14;5.90;;;4.57;;
8060;SDS011;4073;42.626;25.386;2023-03-11T08:08:44;5.47;;;4.07;;
8060;SDS011;4073;42.626;25.386;2023-03-11T08:11:11;9.10;;;5.27;;
8060;SDS011;4073;42.626;25.386;2023-03-11T08:13:41;3.67;;;3.37;;
8060;SDS011;4073;42.626;25.386;2023-03-11T08:16:08;4.83;;;4.10;;
8060;SDS011;4073;42.626;25.386;2023-03-11T08:18:36;5.80;;;4.00;;
8060;SDS011;4073;42.626;25.386;2023-03-11T08:21:06;5.53;;;4.93;;
8060;SDS011;4073;42.626;25.386;2023-03-11T08:23:33;7.67;;;3.30;;
8060;SDS011;4073;42.626;25.386;2023-03-11T08:26:06;3.03;;;2.67;;
8060;SDS011;4073;42.626;25.386;2023-03-11T08:28:33;5.13;;;3.63;;
8060;SDS011;4073;42.626;25.386;2023-03-11T08:30:59;4.07;;;3.33;;
8060;SDS011;4073;42.626;25.386;2023-03-11T08:33:25;4.13;;;2.70;;
8060;SDS011;4073;42.626;25.386;2023-03-11T08:35:51;4.57;;;2.67;;
8060;SDS011;4073;42.626;25.386;2023-03-11T08:38:17;2.20;;;2.00;;
8060;SDS011;4073;42.626;25.386;2023-03-11T08:40:42;4.10;;;2.77;;
8060;SDS011;4073;42.626;25.386;2023-03-11T08:43:11;2.50;;;2.13;;
8060;SDS011;4073;42.626;25.386;2023-03-11T08:45:38;3.57;;;2.37;;
8060;SDS011;4073;42.626;25.386;2023-03-11T08:48:04;4.47;;;2.87;;
8060;SDS011;4073;42.626;25.386;2023-03-11T08:50:30;4.00;;;3.40;;
8060;SDS011;4073;42.626;25.386;2023-03-11T08:52:55;3.87;;;2.10;;
8060;SDS011;4073;42.626;25.386;2023-03-11T08:55:24;3.43;;;2.53;;
8060;SDS011;4073;42.626;25.386;2023-03-11T08:57:52;3.03;;;2.23;;
8060;SDS011;4073;42.626;25.386;2023-03-11T09:00:18;4.37;;;2.80;;
8060;SDS011;4073;42.626;25.386;2023-03-11T09:02:43;6.73;;;5.17;;
8060;SDS011;4073;42.626;25.386;2023-03-11T09:05:09;3.10;;;2.80;;
8060;SDS011;4073;42.626;25.386;2023-03-11T09:07:34;4.00;;;2.40;;
8060;SDS011;4073;42.626;25.386;2023-03-11T09:10:00;2.50;;;2.30;;
8060;SDS011;4073;42.626;25.386;2023-03-11T09:12:26;5.13;;;3.70;;
8060;SDS011;4073;42.626;25.386;2023-03-11T09:14:52;5.50;;;3.33;;
8060;SDS011;4073;42.626;25.386;2023-03-11T09:17:18;3.47;;;3.10;;
8060;SDS011;4073;42.626;25.386;2023-03-11T09:19:44;3.37;;;3.00;;
8060;SDS011;4073;42.626;25.386;2023-03-11T09:22:10;2.40;;;2.20;;
8060;SDS011;4073;42.626;25.386;2023-03-11T09:24:36;4.77;;;4.37;;
8060;SDS011;4073;42.626;25.386;2023-03-11T09:27:01;8.63;;;3.70;;
8060;SDS011;4073;42.626;25.386;2023-03-11T09:29:27;6.93;;;4.07;;
8060;SDS011;4073;42.626;25.386;2023-03-11T09:31:53;2.43;;;2.20;;
8060;SDS011;4073;42.626;25.386;2023-03-11T09:34:19;2.53;;;1.70;;
8060;SDS011;4073;42.626;25.386;2023-03-11T09:36:45;2.63;;;2.40;;
8060;SDS011;4073;42.626;25.386;2023-03-11T09:39:11;2.77;;;2.57;;
8060;SDS011;4073;42.626;25.386;2023-03-11T09:44:21;4.37;;;2.57;;
8060;SDS011;4073;42.626;25.386;2023-03-11T09:52:44;5.00;;;4.07;;
8060;SDS011;4073;42.626;25.386;2023-03-11T09:55:36;3.93;;;1.73;;
8060;SDS011;4073;42.626;25.386;2023-03-11T10:00:53;6.23;;;3.53;;
8060;SDS011;4073;42.626;25.386;2023-03-11T10:03:23;3.33;;;1.83;;
8060;SDS011;4073;42.626;25.386;2023-03-11T10:05:53;3.33;;;2.50;;
8060;SDS011;4073;42.626;25.386;2023-03-11T10:08:30;3.47;;;1.87;;
8060;SDS011;4073;42.626;25.386;2023-03-11T10:17:25;4.43;;;2.37;;
8060;SDS011;4073;42.626;25.386;2023-03-11T10:19:43;3.23;;;2.00;;
8060;SDS011;4073;42.626;25.386;2023-03-11T10:22:16;10.53;;;8.43;;
8060;SDS011;4073;42.626;25.386;2023-03-11T10:27:23;3.37;;;3.07;;
8060;SDS011;4073;42.626;25.386;2023-03-11T10:29:59;4.33;;;1.97;;
8060;SDS011;4073;42.626;25.386;2023-03-11T10:35:15;1.63;;;1.40;;
8060;SDS011;4073;42.626;25.386;2023-03-11T10:37:42;1.80;;;1.50;;
8060;SDS011;4073;42.626;25.386;2023-03-11T10:40:25;3.27;;;1.50;;
8060;SDS011;4073;42.626;25.386;2023-03-11T10:42:54;3.93;;;2.93;;
8060;SDS011;4073;42.626;25.386;2023-03-11T10:45:22;2.00;;;1.60;;
8060;SDS011;4073;42.626;25.386;2023-03-11T10:47:48;1.90;;;1.57;;
8060;SDS011;4073;42.626;25.386;2023-03-11T10:50:14;1.60;;;1.50;;
8060;SDS011;4073;42.626;25.386;2023-03-11T10:52:43;1.57;;;0.93;;
8060;SDS011;4073;42.626;25.386;2023-03-11T10:55:28;1.73;;;1.50;;
8060;SDS011;4073;42.626;25.386;2023-03-11T10:58:00;1.70;;;1.37;;
8060;SDS011;4073;42.626;25.386;2023-03-11T11:00:36;2.53;;;1.53;;
8060;SDS011;4073;42.626;25.386;2023-03-11T11:03:02;2.27;;;1.40;;
8060;SDS011;4073;42.626;25.386;2023-03-11T11:05:31;1.70;;;1.60;;
8060;SDS011;4073;42.626;25.386;2023-03-11T11:08:12;1.17;;;1.07;;
8060;SDS011;4073;42.626;25.386;2023-03-11T11:10:55;2.67;;;1.60;;
8060;SDS011;4073;42.626;25.386;2023-03-11T11:13:24;2.80;;;1.97;;
8060;SDS011;4073;42.626;25.386;2023-03-11T11:15:55;5.23;;;3.07;;
8060;SDS011;4073;42.626;25.386;2023-03-11T11:18:47;3.50;;;2.20;;
8060;SDS011;4073;42.626;25.386;2023-03-11T11:21:33;1.93;;;1.80;;
8060;SDS011;4073;42.626;25.386;2023-03-11T11:26:30;2.60;;;1.30;;
8060;SDS011;4073;42.626;25.386;2023-03-11T11:31:40;3.77;;;2.60;;
8060;SDS011;4073;42.626;25.386;2023-03-11T11:36:54;3.70;;;2.93;;
8060;SDS011;4073;42.626;25.386;2023-03-11T11:39:22;3.03;;;2.63;;
8060;SDS011;4073;42.626;25.386;2023-03-11T11:41:50;5.97;;;3.13;;
8060;SDS011;4073;42.626;25.386;2023-03-11T11:44:18;18.73;;;12.33;;
8060;SDS011;4073;42.626;25.386;2023-03-11T11:46:46;7.13;;;4.87;;
8060;SDS011;4073;42.626;25.386;2023-03-11T11:49:28;6.40;;;5.07;;
8060;SDS011;4073;42.626;25.386;2023-03-11T11:57:18;4.53;;;1.47;;
8060;SDS011;4073;42.626;25.386;2023-03-11T11:59:45;1.83;;;1.30;;
8060;SDS011;4073;42.626;25.386;2023-03-11T12:02:18;2.23;;;1.40;;
8060;SDS011;4073;42.626;25.386;2023-03-11T12:04:49;1.70;;;1.60;;
8060;SDS011;4073;42.626;25.386;2023-03-11T12:15:25;4.30;;;2.10;;
8060;SDS011;4073;42.626;25.386;2023-03-11T12:17:55;1.70;;;1.60;;
8060;SDS011;4073;42.626;25.386;2023-03-11T12:20:34;1.60;;;1.50;;
8060;SDS011;4073;42.626;25.386;2023-03-11T12:25:44;1.70;;;1.47;;
8060;SDS011;4073;42.626;25.386;2023-03-11T12:28:31;1.63;;;1.50;;
8060;SDS011;4073;42.626;25.386;2023-03-11T12:31:00;1.73;;;1.63;;
8060;SDS011;4073;42.626;25.386;2023-03-11T12:33:48;2.47;;;2.17;;
8060;SDS011;4073;42.626;25.386;2023-03-11T12:44:36;3.27;;;1.50;;
8060;SDS011;4073;42.626;25.386;2023-03-11T12:49:45;1.90;;;1.70;;
8060;SDS011;4073;42.626;25.386;2023-03-11T12:57:33;2.43;;;2.20;;
8060;SDS011;4073;42.626;25.386;2023-03-11T13:10:02;1.83;;;1.37;;
8060;SDS011;4073;42.626;25.386;2023-03-11T13:12:42;1.60;;;1.33;;
8060;SDS011;4073;42.626;25.386;2023-03-11T13:33:58;2.60;;;1.10;;
8060;SDS011;4073;42.626;25.386;2023-03-11T13:45:06;1.97;;;1.00;;
8060;SDS011;4073;42.626;25.386;2023-03-11T13:47:43;2.53;;;1.70;;
8060;SDS011;4073;42.626;25.386;2023-03-11T13:50:17;1.80;;;1.30;;
8060;SDS011;4073;42.626;25.386;2023-03-11T13:52:50;1.90;;;1.20;;
8060;SDS011;4073;42.626;25.386;2023-03-11T13:57:52;1.33;;;1.23;;
8060;SDS011;4073;42.626;25.386;2023-03-11T14:00:29;4.20;;;1.40;;
8060;SDS011;4073;42.626;25.386;2023-03-11T14:02:56;3.47;;;1.30;;
8060;SDS011;4073;42.626;25.386;2023-03-11T14:05:26;1.10;;;1.00;;
8060;SDS011;4073;42.626;25.386;2023-03-11T14:09:01;1.53;;;1.33;;
8060;SDS011;4073;42.626;25.386;2023-03-11T14:13:39;1.10;;;1.00;;
8060;SDS011;4073;42.626;25.386;2023-03-11T14:16:13;1.20;;;1.10;;
8060;SDS011;4073;42.626;25.386;2023-03-11T14:18:43;2.70;;;1.60;;
8060;SDS011;4073;42.626;25.386;2023-03-11T14:21:14;4.57;;;3.67;;
8060;SDS011;4073;42.626;25.386;2023-03-11T14:23:43;12.30;;;8.07;;
8060;SDS011;4073;42.626;25.386;2023-03-11T14:26:21;38.13;;;22.70;;
8060;SDS011;4073;42.626;25.386;2023-03-11T14:28:49;9.73;;;6.77;;
8060;SDS011;4073;42.626;25.386;2023-03-11T14:31:25;32.43;;;19.93;;
8060;SDS011;4073;42.626;25.386;2023-03-11T14:33:59;30.23;;;19.10;;
8060;SDS011;4073;42.626;25.386;2023-03-11T14:36:46;14.67;;;10.00;;
8060;SDS011;4073;42.626;25.386;2023-03-11T14:39:37;17.53;;;12.43;;
8060;SDS011;4073;42.626;25.386;2023-03-11T14:50:01;6.03;;;3.53;;
8060;SDS011;4073;42.626;25.386;2023-03-11T14:52:37;6.90;;;4.70;;
8060;SDS011;4073;42.626;25.386;2023-03-11T14:55:14;7.43;;;5.10;;
8060;SDS011;4073;42.626;25.386;2023-03-11T14:57:44;3.83;;;2.90;;
8060;SDS011;4073;42.626;25.386;2023-03-11T15:00:35;8.77;;;4.43;;
8060;SDS011;4073;42.626;25.386;2023-03-11T15:05:47;4.53;;;2.40;;
8060;SDS011;4073;42.626;25.386;2023-03-11T15:08:17;10.00;;;6.40;;
8060;SDS011;4073;42.626;25.386;2023-03-11T15:13:42;3.47;;;2.60;;
8060;SDS011;4073;42.626;25.386;2023-03-11T15:19:00;5.77;;;3.73;;
8060;SDS011;4073;42.626;25.386;2023-03-11T15:22:26;2.50;;;2.30;;
8060;SDS011;4073;42.626;25.386;2023-03-11T15:25:12;3.27;;;2.90;;
8060;SDS011;4073;42.626;25.386;2023-03-11T15:27:40;5.67;;;3.70;;
8060;SDS011;4073;42.626;25.386;2023-03-11T15:32:43;5.70;;;3.23;;
8060;SDS011;4073;42.626;25.386;2023-03-11T15:35:29;5.27;;;3.73;;
8060;SDS011;4073;42.626;25.386;2023-03-11T15:40:56;6.00;;;3.73;;
8060;SDS011;4073;42.626;25.386;2023-03-11T15:43:32;3.30;;;2.83;;
8060;SDS011;4073;42.626;25.386;2023-03-11T15:46:07;3.63;;;3.30;;
8060;SDS011;4073;42.626;25.386;2023-03-11T15:48:35;3.00;;;2.70;;
8060;SDS011;4073;42.626;25.386;2023-03-11T15:51:00;3.30;;;2.90;;
8060;SDS011;4073;42.626;25.386;2023-03-11T15:53:26;2.70;;;2.30;;
8060;SDS011;4073;42.626;25.386;2023-03-11T15:55:53;4.73;;;3.60;;
8060;SDS011;4073;42.626;25.386;2023-03-11T15:58:22;4.70;;;3.27;;
8060;SDS011;4073;42.626;25.386;2023-03-11T16:00:49;8.87;;;7.10;;
8060;SDS011;4073;42.626;25.386;2023-03-11T16:03:17;10.73;;;7.97;;
8060;SDS011;4073;42.626;25.386;2023-03-11T16:05:43;12.53;;;5.47;;
8060;SDS011;4073;42.626;25.386;2023-03-11T16:08:09;7.50;;;5.10;;
8060;SDS011;4073;42.626;25.386;2023-03-11T16:10:34;10.10;;;6.63;;
8060;SDS011;4073;42.626;25.386;2023-03-11T16:13:01;9.57;;;5.83;;
8060;SDS011;4073;42.626;25.386;2023-03-11T16:15:30;3.93;;;3.50;;
8060;SDS011;4073;42.626;25.386;2023-03-11T16:17:59;4.37;;;3.77;;
8060;SDS011;4073;42.626;25.386;2023-03-11T16:20:27;5.63;;;3.70;;
8060;SDS011;4073;42.626;25.386;2023-03-11T16:22:56;4.13;;;3.03;;
8060;SDS011;4073;42.626;25.386;2023-03-11T16:25:32;6.27;;;4.17;;
8060;SDS011;4073;42.626;25.386;2023-03-11T16:28:00;3.67;;;2.77;;
8060;SDS011;4073;42.626;25.386;2023-03-11T16:30:26;3.77;;;2.97;;
8060;SDS011;4073;42.626;25.386;2023-03-11T16:32:53;3.27;;;2.37;;
8060;SDS011;4073;42.626;25.386;2023-03-11T16:35:19;6.17;;;3.90;;
8060;SDS011;4073;42.626;25.386;2023-03-11T16:37:45;6.37;;;4.53;;
8060;SDS011;4073;42.626;25.386;2023-03-11T16:40:12;8.43;;;5.13;;
8060;SDS011;4073;42.626;25.386;2023-03-11T16:42:39;4.07;;;3.50;;
8060;SDS011;4073;42.626;25.386;2023-03-11T16:45:05;6.47;;;3.90;;
8060;SDS011;4073;42.626;25.386;2023-03-11T16:47:31;2.67;;;2.40;;
8060;SDS011;4073;42.626;25.386;2023-03-11T16:49:57;4.20;;;2.50;;
8060;SDS011;4073;42.626;25.386;2023-03-11T16:52:22;2.87;;;2.67;;
8060;SDS011;4073;42.626;25.386;2023-03-11T16:54:48;5.10;;;2.90;;
8060;SDS011;4073;42.626;25.386;2023-03-11T16:57:14;2.27;;;2.07;;
8060;SDS011;4073;42.626;25.386;2023-03-11T16:59:39;6.23;;;3.13;;
8060;SDS011;4073;42.626;25.386;2023-03-11T17:02:05;3.37;;;2.43;;
8060;SDS011;4073;42.626;25.386;2023-03-11T17:04:30;4.80;;;2.50;;
8060;SDS011;4073;42.626;25.386;2023-03-11T17:06:57;2.87;;;1.90;;
8060;SDS011;4073;42.626;25.386;2023-03-11T17:09:23;2.80;;;2.57;;
8060;SDS011;4073;42.626;25.386;2023-03-11T17:11:48;2.77;;;2.53;;
8060;SDS011;4073;42.626;25.386;2023-03-11T17:14:14;3.27;;;2.70;;